x

San Francisco - 18nm West Of San Francisco, Ca (46026) Wave Buoy

4:50pm - Sat 19th Aug 2017 All times are PDT. -7 hours from GMT.

  • Sig Wave height 4.6ft
  • Swell Direction
  • Peak Period 16s
  • Average Period 8s
  • Wind
    7mph, 11mph gusts
  • Sea Temp 59°f
  • Air Temp 59°f
  • Sea Pressure 1012.4mb
  • San Francisco - 18nm West Of San Francisco, Ca
  • San Francisco - 18nm West Of San Francisco, Ca

More Historic Weather Station data

Upgrade to MSW Pro to gain access to the past 30 days of data for over 8000 Wavebouys and Weather Stations around the globe.

Join

Comparision Forecast

View Surf forecast
   
Sat 08/19 4:50pm 4.5ft 16s 8s 7 11 mph 1012.4mb 59f 59f
3:50pm 5ft 9s 7s 7 9 mph 1012.9mb 59f 60f
2:50pm 5ft 9s 7s 7 7 mph 1013.4mb 59f 59f
1:50pm 5ft 16s 7s 7 7 mph 1014mb 58f 59f
12:50pm 6ft 10s 8s 4 7 mph 1014.1mb 58f 58f
11:50am 5.5ft 9s 8s 4 7 mph 1014.3mb 58f 58f
10:50am 6ft 9s 8s 7 9 mph 1014.2mb 58f 58f
9:50am 6ft 9s 8s 2 2 mph 1014mb 58f 58f
8:50am 6ft 16s 8s 4 7 mph 1013.7mb 58f 57f
7:50am 6ft 16s 8s 4 7 mph 1013.6mb 58f 57f
6:50am 5ft 10s 8s 7 11 mph 1013.4mb 58f 57f
5:50am 5.5ft 9s 8s 4 9 mph 1013.1mb 58f 57f
4:50am 4.5ft 16s 8s 4 7 mph 1013.1mb 59f 57f
3:50am 5ft 16s 9s 2 4 mph 1013.2mb 59f 58f
2:50am 4.5ft 16s 8s 4 7 mph 1013.5mb 58f 58f
12:50am 4.5ft 16s 9s 4 7 mph 1014.3mb 59f 58f
Fri 08/18 11:50pm 4.5ft 17s 8s 2 4 mph 1014.6mb 59f 58f
10:50pm 4ft 16s 8s 2 4 mph 1014.8mb 59f 59f
9:50pm 4.5ft 9s 8s 2 9 mph 1014.7mb 59f 59f
8:50pm 4.5ft 11s 8s 2 4 mph 1014.8mb 59f 59f
7:50pm 4.5ft 11s 8s 4 9 mph 1014.7mb 59f 59f
6:50pm 4.5ft 11s 8s 4 7 mph 1014.6mb 59f 59f
5:50pm 4.5ft 10s 9s 4 9 mph 1014.9mb 59f 59f
4:50pm 4.5ft 11s 9s 4 7 mph 1015.1mb 59f 59f
3:50pm 4.5ft 10s 8s 4 7 mph 1015.5mb 59f 59f
2:50pm 4.5ft 11s 9s 4 7 mph 1015.9mb 59f 59f
1:50pm 4ft 9s 8s 4 7 mph 1016.3mb 59f 59f
12:50pm 4.5ft 11s 8s 4 4 mph 1016.5mb 59f 58f
11:50am 4.5ft 10s 9s 4 4 mph 1016.6mb 58f 58f
10:50am 4.5ft 10s 8s 2 2 mph 1016.9mb 58f 58f
9:50am 4.5ft 11s 8s  -  2 mph 1016.6mb 58f 58f
8:50am 4.5ft 10s 9s 2 2 mph 1016.6mb 58f 57f
7:50am 4.5ft 11s 8s  -  2 mph 1016.6mb 58f 58f
6:50am 4.5ft 10s 9s 2 4 mph 1016.2mb 58f 57f
5:50am 4.5ft 10s 9s  -  2 mph 1015.9mb 58f 57f
4:50am 4.5ft 11s 9s 2 4 mph 1016mb 58f 57f
3:50am 4ft 16s 9s 4 7 mph 1016mb 58f 57f
2:50am 4ft 8s 9s 4 7 mph 1016.1mb 58f 57f
1:50am 3.5ft 9s 9s 2 4 mph 1016.5mb 58f 58f
12:50am 4ft 10s 8s 4 4 mph 1016.7mb 58f 58f
Thu 08/17 11:50pm 4.5ft 10s 9s 2 4 mph 1016.7mb 59f 58f
10:50pm 4ft 10s 8s 7 7 mph 1016.6mb 59f 58f
9:50pm 4ft 10s 8s 9 11 mph 1016.4mb 59f 59f
8:50pm 4.5ft 10s 8s 9 11 mph 1015.9mb 60f 59f
7:50pm 4.5ft 9s 8s 7 9 mph 1015.7mb 61f 60f
6:50pm 4.5ft 10s 8s 7 9 mph 1015.7mb 61f 60f
5:50pm 4.5ft 10s 8s 4 7 mph 1015.9mb 62f 61f
4:50pm 4.5ft 10s 8s 4 9 mph 1016.1mb 62f 61f
3:50pm 4ft 9s 8s 4 7 mph 1016.6mb 62f 61f
2:50pm 4.5ft 10s 8s 4 4 mph 1017mb 61f 61f
1:50pm 4.5ft 17s 8s 2 2 mph 1017.3mb 59f 60f
12:50pm 4.5ft 10s 8s 2 4 mph 1017.7mb 59f 59f
11:50am 4.5ft 10s 8s 2 4 mph 1018.1mb 58f 59f
10:50am 4.5ft 10s 8s 4 7 mph 1017.7mb 58f 58f
9:50am 5ft 9s 8s 2 4 mph 1017.3mb 57f 58f
8:50am 5ft 9s 8s 4 7 mph 1016.8mb 57f 58f
7:50am 5ft 10s 8s 7 9 mph 1016.1mb 57f 58f
6:50am 5ft 10s 8s 4 7 mph 1015.7mb 56f 58f
5:50am 4.5ft 9s 8s 4 7 mph 1015.3mb 57f 58f
4:50am 4.5ft 10s 8s 2 4 mph 1015.2mb 57f 58f
3:50am 4.5ft 10s 8s 2 4 mph 1015.4mb 57f 58f
2:50am 4.5ft 10s 8s 4 9 mph 1015.6mb 56f 58f
1:50am 4ft 10s 8s 4 7 mph 1015.6mb 57f 58f
12:50am 4ft 10s 8s 9 11 mph 1015.6mb 57f 59f
Wed 08/16 11:50pm 4.5ft 9s 8s 7 9 mph 1015.5mb 57f 59f
10:50pm 5ft 10s 8s 7 9 mph 1015.4mb 58f 59f
9:50pm 5ft 10s 8s 4 7 mph 1015.4mb 58f 60f
8:50pm 4.5ft 10s 7s 2 4 mph 1014.8mb 59f 59f
7:50pm 4.5ft 10s 7s 4 7 mph 1014.5mb 59f 60f
6:50pm 5ft 9s 8s 4 7 mph 1014.4mb 59f 60f
5:50pm 5ft 9s 8s 2 4 mph 1014.7mb 59f 59f
4:50pm 5ft 10s 8s 4 7 mph 1014.8mb 59f 59f
3:50pm 5ft 10s 8s 4 7 mph 1015mb 59f 59f
7:50am 4ft 10s 7s 2 2 mph 1014.5mb 56f 57f
6:50am 4ft 8s 7s 2 4 mph 1014.1mb 55f 57f
5:50am 3.5ft 8s 7s 4 7 mph 1013.6mb 55f 57f
4:50am 4ft 8s 7s 4 7 mph 1013.5mb 55f 57f
3:50am 3.5ft 9s 6s 4 7 mph 1013.3mb 55f 57f
2:50am 3.5ft 9s 6s 2 4 mph 1013.5mb 55f 57f
1:50am 4ft 10s 6s 2 4 mph 1013.4mb 55f 57f
12:50am 4ft 9s 6s 4 7 mph 1013.6mb 56f 56f